Time;durP1;ratioP1;P1;durP2;ratioP2;P2;SDS_P1;SDS_P2;PMS_P1;PMS_P2;Temp;Humidity;BMP_temperature;BMP_pressure;BME280_temperature;BME280_humidity;BME280_pressure;Samples;Min_cycle;Max_cycle;Signal;HPM_P1;HPM_P2
2021/06/12 00:01:19;;;;;;;1.77;1.50;;;17.80;75.80;;;;;;5097392;28;20024;-68
2021/06/12 00:03:46;;;;;;;2.08;1.55;;;17.80;76.20;;;;;;5097623;28;20036;-68
2021/06/12 00:06:11;;;;;;;2.10;1.52;;;17.70;77.40;;;;;;5097504;28;20027;-68
2021/06/12 00:08:37;;;;;;;1.83;1.52;;;17.60;78.10;;;;;;5097484;28;20069;-68
2021/06/12 00:11:03;;;;;;;2.70;1.85;;;17.50;78.70;;;;;;5097245;28;20035;-69
2021/06/12 00:13:30;;;;;;;2.03;1.70;;;17.40;79.80;;;;;;5097061;28;20309;-68
2021/06/12 00:15:56;;;;;;;4.38;1.40;;;17.40;78.70;;;;;;5097598;28;20062;-68
2021/06/12 00:18:23;;;;;;;3.00;1.65;;;17.30;78.40;;;;;;5097050;28;20036;-68
2021/06/12 00:20:51;;;;;;;2.38;2.17;;;17.30;79.00;;;;;;5097040;28;20024;-68
2021/06/12 00:23:17;;;;;;;2.67;1.67;;;17.30;78.60;;;;;;5096985;28;20067;-68
2021/06/12 00:25:43;;;;;;;2.08;1.60;;;17.30;79.40;;;;;;5096922;28;20062;-69
2021/06/12 00:28:08;;;;;;;3.35;1.42;;;17.20;78.70;;;;;;5097166;28;20123;-68
2021/06/12 00:30:35;;;;;;;3.33;1.52;;;17.30;74.90;;;;;;5097233;28;20471;-68
2021/06/12 00:33:01;;;;;;;1.50;1.20;;;17.50;72.40;;;;;;5096848;28;20465;-67
2021/06/12 00:35:26;;;;;;;2.00;1.33;;;17.70;71.90;;;;;;5096814;28;20021;-68
2021/06/12 00:37:53;;;;;;;2.40;1.25;;;18.00;71.30;;;;;;5097120;28;20028;-68
2021/06/12 00:40:22;;;;;;;2.33;2.00;;;18.20;71.70;;;;;;5097135;28;20155;-68
2021/06/12 00:42:48;;;;;;;3.05;1.40;;;18.30;72.20;;;;;;5096983;28;20028;-68
2021/06/12 00:45:18;;;;;;;2.83;2.00;;;18.40;72.70;;;;;;5097048;28;20035;-68
2021/06/12 00:47:45;;;;;;;2.33;1.50;;;18.40;73.60;;;;;;5096732;28;20107;-68
2021/06/12 00:50:12;;;;;;;1.92;1.35;;;18.40;71.60;;;;;;5096904;28;20028;-68
2021/06/12 00:52:38;;;;;;;4.82;1.70;;;18.40;71.70;;;;;;5096963;28;20293;-68
2021/06/12 00:55:06;;;;;;;2.53;1.30;;;18.40;71.50;;;;;;5096969;28;20053;-68
2021/06/12 00:57:33;;;;;;;2.63;2.33;;;18.40;70.80;;;;;;5100099;28;20030;-68
2021/06/12 00:59:59;;;;;;;1.75;1.35;;;18.40;72.20;;;;;;5101099;28;20028;-68
2021/06/12 01:02:24;;;;;;;3.10;1.50;;;18.60;69.80;;;;;;5100995;28;20035;-68
2021/06/12 01:04:50;;;;;;;2.88;1.13;;;18.60;69.60;;;;;;5100662;28;20324;-68
2021/06/12 01:07:16;;;;;;;3.03;1.20;;;18.80;68.50;;;;;;5100647;28;20050;-68
2021/06/12 01:09:41;;;;;;;2.13;1.52;;;19.00;68.10;;;;;;5100495;28;20035;-68
2021/06/12 01:12:19;;;;;;;4.07;1.30;;;19.20;67.40;;;;;;5100526;28;20031;-68
2021/06/12 01:14:51;;;;;;;2.90;1.20;;;19.40;67.40;;;;;;5100322;28;20089;-68
2021/06/12 01:17:35;;;;;;;1.88;1.20;;;19.60;67.00;;;;;;5100837;28;20074;-68
2021/06/12 01:20:04;;;;;;;1.63;1.10;;;19.70;66.20;;;;;;5100790;28;20081;-68
2021/06/12 01:22:47;;;;;;;2.80;1.40;;;19.70;65.50;;;;;;5100357;28;20432;-68
2021/06/12 01:25:16;;;;;;;2.45;1.27;;;19.80;65.30;;;;;;5100584;28;20028;-68
2021/06/12 01:27:53;;;;;;;1.30;1.00;;;19.80;65.60;;;;;;5100553;28;20040;-69
2021/06/12 01:30:22;;;;;;;2.72;1.20;;;19.80;65.90;;;;;;5100464;28;20039;-68
2021/06/12 01:32:58;;;;;;;1.83;1.33;;;19.90;65.30;;;;;;5100151;28;20032;-68
2021/06/12 01:35:29;;;;;;;1.50;1.35;;;19.90;66.00;;;;;;5100413;28;20016;-68
2021/06/12 01:37:55;;;;;;;1.33;1.20;;;20.00;66.20;;;;;;5100115;28;20032;-68
2021/06/12 01:40:24;;;;;;;2.10;1.40;;;20.10;65.70;;;;;;5100024;28;20050;-68
2021/06/12 01:42:52;;;;;;;1.73;1.05;;;20.10;65.60;;;;;;5100191;28;20358;-68
2021/06/12 01:45:18;;;;;;;1.63;1.20;;;20.10;65.30;;;;;;5100237;28;20380;-68
2021/06/12 01:47:46;;;;;;;1.83;1.40;;;20.20;65.00;;;;;;5099922;28;20052;-68
2021/06/12 01:50:13;;;;;;;1.30;0.98;;;20.10;65.00;;;;;;5099792;28;20032;-68
2021/06/12 01:52:41;;;;;;;1.50;1.10;;;20.10;64.70;;;;;;5100114;28;20028;-68
2021/06/12 01:55:09;;;;;;;2.15;1.40;;;20.10;64.30;;;;;;5099768;28;20055;-68
2021/06/12 01:57:36;;;;;;;1.65;1.08;;;20.10;64.10;;;;;;5100031;28;20020;-68
2021/06/12 02:00:03;;;;;;;2.22;1.10;;;20.20;63.60;;;;;;5099976;28;20103;-68
2021/06/12 02:02:29;;;;;;;2.40;1.20;;;20.30;63.60;;;;;;5099590;28;20032;-68
2021/06/12 02:04:56;;;;;;;1.65;1.00;;;20.40;63.00;;;;;;5099544;28;20035;-68
2021/06/12 02:07:24;;;;;;;5.25;1.17;;;20.60;62.00;;;;;;5099280;28;20024;-68
2021/06/12 02:09:51;;;;;;;1.50;1.20;;;20.70;62.80;;;;;;5099394;28;20024;-68
2021/06/12 02:12:19;;;;;;;3.17;1.10;;;20.80;62.60;;;;;;5099380;28;20027;-68
2021/06/12 02:14:46;;;;;;;1.73;1.25;;;20.80;62.20;;;;;;5099149;28;20096;-68
2021/06/12 02:17:13;;;;;;;1.00;0.80;;;20.70;62.40;;;;;;5099298;28;20032;-68
2021/06/12 02:19:41;;;;;;;1.63;1.27;;;20.70;62.50;;;;;;5099284;28;20416;-68
2021/06/12 02:22:07;;;;;;;1.42;1.20;;;20.50;63.80;;;;;;5099248;28;20036;-68
2021/06/12 02:24:33;;;;;;;1.85;1.27;;;20.30;64.30;;;;;;5099538;28;20035;-68
2021/06/12 02:27:00;;;;;;;3.17;1.20;;;20.20;64.30;;;;;;5099357;28;20093;-68
2021/06/12 02:29:27;;;;;;;1.58;1.10;;;20.10;64.70;;;;;;5099327;28;20316;-68
2021/06/12 02:32:02;;;;;;;1.15;0.85;;;20.00;64.30;;;;;;5099037;28;20028;-68
2021/06/12 02:34:29;;;;;;;2.75;1.10;;;19.90;64.70;;;;;;5099072;28;20044;-68
2021/06/12 02:36:55;;;;;;;1.95;0.98;;;19.90;65.00;;;;;;5099183;28;20073;-68
2021/06/12 02:39:20;;;;;;;1.42;1.20;;;19.80;64.90;;;;;;5099214;28;20023;-68
2021/06/12 02:41:46;;;;;;;3.25;1.40;;;19.80;64.70;;;;;;5099155;28;20404;-68
2021/06/12 02:44:12;;;;;;;1.75;1.00;;;19.70;64.50;;;;;;5099278;28;20036;-68
2021/06/12 02:46:43;;;;;;;3.00;1.15;;;19.70;65.50;;;;;;5099012;28;20055;-68
2021/06/12 02:49:10;;;;;;;4.18;1.33;;;19.70;65.60;;;;;;5099026;28;20024;-68
2021/06/12 02:51:40;;;;;;;1.45;1.20;;;19.70;66.60;;;;;;5098648;28;20396;-68
2021/06/12 02:54:06;;;;;;;2.15;1.35;;;19.70;66.30;;;;;;5098963;28;20066;-68
2021/06/12 02:56:32;;;;;;;2.58;1.20;;;19.70;66.30;;;;;;5098541;28;20028;-68
2021/06/12 02:59:03;;;;;;;4.10;1.20;;;19.60;66.50;;;;;;5098828;28;20027;-68
2021/06/12 03:01:30;;;;;;;1.35;1.20;;;19.60;66.70;;;;;;5098869;28;20344;-68
2021/06/12 03:03:56;;;;;;;1.35;1.25;;;19.50;67.30;;;;;;5098771;28;20315;-68
2021/06/12 03:06:23;;;;;;;2.08;1.48;;;19.50;67.00;;;;;;5098636;28;20032;-68
2021/06/12 03:08:52;;;;;;;2.42;0.98;;;19.50;66.60;;;;;;5098566;28;20047;-68
2021/06/12 03:11:18;;;;;;;1.92;1.33;;;19.50;67.50;;;;;;5098595;28;20103;-68
2021/06/12 03:13:46;;;;;;;1.77;1.20;;;19.40;66.10;;;;;;5098095;28;20040;-68
2021/06/12 03:16:14;;;;;;;2.42;1.30;;;19.40;66.70;;;;;;5098475;28;20103;-68
2021/06/12 03:18:46;;;;;;;1.67;1.35;;;19.40;66.10;;;;;;5097251;28;20035;-68
2021/06/12 03:21:14;;;;;;;4.80;1.67;;;19.50;66.40;;;;;;5098434;28;20320;-68
2021/06/12 03:23:41;;;;;;;1.52;1.30;;;19.50;66.30;;;;;;5098066;28;20024;-68
2021/06/12 03:26:10;;;;;;;1.33;1.13;;;19.60;65.60;;;;;;5098246;28;20110;-68
2021/06/12 03:28:36;;;;;;;2.42;1.10;;;19.70;65.20;;;;;;5098174;28;20040;-68
2021/06/12 03:31:03;;;;;;;3.03;1.20;;;19.70;65.10;;;;;;5097950;28;20358;-68
2021/06/12 03:33:29;;;;;;;1.60;0.98;;;19.70;64.60;;;;;;5097924;28;20086;-68
2021/06/12 03:35:56;;;;;;;1.23;1.00;;;19.70;64.80;;;;;;5098366;28;20149;-68
2021/06/12 03:38:22;;;;;;;1.60;1.02;;;19.70;64.40;;;;;;5097747;28;20111;-68
2021/06/12 03:40:49;;;;;;;1.50;1.25;;;19.70;65.70;;;;;;5098321;28;20111;-68
2021/06/12 03:43:16;;;;;;;1.55;1.10;;;19.60;66.90;;;;;;5097778;28;20029;-68
2021/06/12 03:45:42;;;;;;;1.60;1.10;;;19.50;67.50;;;;;;5097928;28;20281;-68
2021/06/12 03:48:10;;;;;;;1.50;1.00;;;19.30;68.00;;;;;;5097607;28;20024;-68
2021/06/12 03:50:37;;;;;;;1.83;1.13;;;19.20;68.70;;;;;;5097560;28;20324;-68
2021/06/12 03:53:05;;;;;;;1.40;0.90;;;19.10;67.10;;;;;;5097478;28;20099;-68
2021/06/12 03:55:31;;;;;;;1.58;1.08;;;19.10;66.30;;;;;;5097460;28;20013;-68
2021/06/12 03:57:57;;;;;;;1.33;1.20;;;19.10;67.70;;;;;;5097743;28;20020;-68
2021/06/12 04:00:23;;;;;;;2.97;1.40;;;19.10;67.70;;;;;;5097679;28;20051;-68
2021/06/12 04:02:50;;;;;;;1.85;1.33;;;19.10;67.10;;;;;;5097669;28;20078;-68
2021/06/12 04:05:16;;;;;;;2.15;1.00;;;19.20;67.20;;;;;;5097584;28;20032;-68
2021/06/12 04:07:42;;;;;;;1.58;1.23;;;19.30;66.60;;;;;;5097230;28;20032;-68
2021/06/12 04:10:09;;;;;;;2.92;1.17;;;19.40;67.10;;;;;;5097506;28;20019;-68
2021/06/12 04:12:35;;;;;;;1.35;0.98;;;19.40;66.80;;;;;;5097158;28;20408;-68
2021/06/12 04:15:01;;;;;;;2.63;1.13;;;19.40;67.40;;;;;;5096845;28;20040;-67
2021/06/12 04:17:26;;;;;;;1.23;1.13;;;19.40;67.00;;;;;;5097079;28;20031;-68
2021/06/12 04:19:52;;;;;;;1.80;1.27;;;19.40;67.00;;;;;;5097397;28;20107;-68
2021/06/12 04:22:18;;;;;;;1.48;1.33;;;19.30;67.60;;;;;;5097325;28;20032;-67
2021/06/12 04:24:43;;;;;;;3.72;1.30;;;19.40;67.00;;;;;;5097270;28;20035;-68
2021/06/12 04:27:09;;;;;;;1.83;1.20;;;19.40;67.40;;;;;;5097320;28;20373;-68
2021/06/12 04:29:35;;;;;;;1.92;1.10;;;19.40;67.30;;;;;;5097069;28;20466;-68
2021/06/12 04:32:01;;;;;;;2.05;1.00;;;19.40;66.60;;;;;;5097083;28;20069;-68
2021/06/12 04:34:27;;;;;;;4.30;1.33;;;19.50;67.30;;;;;;5096916;28;20020;-68
2021/06/12 04:36:53;;;;;;;1.60;1.13;;;19.50;67.30;;;;;;5097115;28;20065;-68
2021/06/12 04:39:18;;;;;;;2.65;1.23;;;19.60;67.30;;;;;;5097147;28;20024;-68
2021/06/12 04:41:44;;;;;;;1.30;1.20;;;19.60;67.00;;;;;;5096776;28;20032;-68
2021/06/12 04:44:10;;;;;;;2.58;1.20;;;19.60;66.80;;;;;;5097223;28;20036;-68
2021/06/12 04:46:35;;;;;;;1.65;1.30;;;19.70;67.20;;;;;;5097012;28;20035;-68
2021/06/12 04:49:01;;;;;;;1.77;1.10;;;19.70;67.40;;;;;;5096646;28;20024;-68
2021/06/12 04:51:26;;;;;;;2.42;1.40;;;19.70;68.90;;;;;;5096699;28;20024;-68
2021/06/12 04:53:52;;;;;;;2.38;0.90;;;19.70;69.20;;;;;;5097028;28;20024;-68
2021/06/12 04:56:18;;;;;;;2.45;1.20;;;19.60;69.80;;;;;;5096608;28;20020;-68
2021/06/12 04:58:43;;;;;;;1.35;1.00;;;19.50;70.20;;;;;;5096938;28;20020;-68
2021/06/12 05:01:09;;;;;;;1.25;1.15;;;19.50;72.00;;;;;;5096620;28;20034;-68
2021/06/12 05:03:36;;;;;;;1.10;0.90;;;19.50;69.10;;;;;;5096947;28;20081;-68
2021/06/12 05:06:01;;;;;;;1.27;1.10;;;19.60;71.30;;;;;;5096813;28;20038;-68
2021/06/12 05:08:27;;;;;;;2.47;1.42;;;19.60;72.30;;;;;;5096783;28;20020;-68
2021/06/12 05:10:53;;;;;;;4.35;1.10;;;19.60;71.90;;;;;;5096858;28;20099;-68
2021/06/12 05:13:18;;;;;;;1.65;1.20;;;19.60;71.60;;;;;;5096373;28;20036;-68
2021/06/12 05:15:44;;;;;;;2.42;1.30;;;19.70;73.20;;;;;;5096469;28;20104;-68
2021/06/12 05:18:11;;;;;;;1.65;1.23;;;19.80;74.10;;;;;;5096471;28;20020;-68
2021/06/12 05:20:37;;;;;;;1.83;1.40;;;19.90;73.60;;;;;;5096409;28;20069;-68
2021/06/12 05:23:04;;;;;;;2.00;1.42;;;20.00;73.90;;;;;;5096409;28;20107;-68
2021/06/12 05:25:31;;;;;;;1.50;1.00;;;20.00;75.90;;;;;;5096317;28;20036;-68
2021/06/12 05:27:57;;;;;;;1.88;1.30;;;20.10;75.40;;;;;;5096720;28;20024;-68
2021/06/12 05:30:23;;;;;;;2.53;2.05;;;20.20;72.90;;;;;;5096302;28;20435;-68
2021/06/12 05:32:49;;;;;;;2.13;1.20;;;20.30;72.20;;;;;;5096332;28;20025;-68
2021/06/12 05:35:15;;;;;;;1.40;1.27;;;20.40;68.80;;;;;;5096310;28;20103;-68
2021/06/12 05:37:41;;;;;;;1.52;1.20;;;20.60;71.00;;;;;;5096665;28;20028;-68
2021/06/12 05:40:09;;;;;;;1.80;1.17;;;20.60;71.00;;;;;;5096611;28;20414;-68
2021/06/12 05:42:35;;;;;;;1.92;1.27;;;20.70;68.70;;;;;;5097903;28;20038;-68
2021/06/12 05:45:02;;;;;;;2.72;1.30;;;20.70;71.80;;;;;;5100478;28;20032;-68
2021/06/12 05:47:28;;;;;;;1.65;1.30;;;20.80;72.10;;;;;;5100197;28;20106;-68
2021/06/12 05:49:54;;;;;;;1.83;1.35;;;20.80;73.00;;;;;;5100147;28;20381;-68
2021/06/12 05:52:19;;;;;;;2.58;1.33;;;21.00;75.60;;;;;;5100167;28;20362;-68
2021/06/12 05:54:45;;;;;;;3.28;1.70;;;21.10;71.20;;;;;;5100083;28;20392;-68
2021/06/12 05:57:10;;;;;;;3.05;1.80;;;21.50;70.00;;;;;;5099764;28;20024;-69
2021/06/12 05:59:36;;;;;;;2.78;1.70;;;21.80;69.80;;;;;;5099723;28;20024;-68
2021/06/12 06:02:02;;;;;;;1.90;1.60;;;22.20;68.70;;;;;;5099945;28;20027;-68
2021/06/12 06:04:28;;;;;;;2.42;1.63;;;22.70;66.50;;;;;;5099985;28;20039;-69
2021/06/12 06:06:53;;;;;;;6.63;2.47;;;23.30;66.10;;;;;;5099807;28;20031;-69
2021/06/12 06:09:19;;;;;;;3.10;1.98;;;23.60;64.60;;;;;;5099454;28;20471;-69
2021/06/12 06:11:45;;;;;;;4.88;1.60;;;23.80;64.70;;;;;;5099425;28;20016;-69
2021/06/12 06:14:10;;;;;;;3.05;1.80;;;23.90;65.70;;;;;;5099431;28;20051;-69
2021/06/12 06:16:36;;;;;;;2.35;1.42;;;24.20;65.10;;;;;;5099314;28;20039;-69
2021/06/12 06:19:02;;;;;;;1.92;1.58;;;24.60;64.80;;;;;;5099325;28;20035;-69
2021/06/12 06:21:28;;;;;;;4.03;1.58;;;25.30;63.90;;;;;;5099588;28;20106;-69
2021/06/12 06:23:53;;;;;;;3.15;1.60;;;25.80;62.20;;;;;;5099580;28;20431;-69
2021/06/12 06:26:20;;;;;;;2.70;1.52;;;26.40;62.10;;;;;;5099456;28;20324;-69
2021/06/12 06:28:46;;;;;;;5.57;1.70;;;26.80;61.30;;;;;;5099056;28;20511;-69
2021/06/12 06:31:11;;;;;;;2.00;1.42;;;26.90;61.20;;;;;;5099424;28;20052;-69
2021/06/12 06:33:37;;;;;;;2.17;1.30;;;26.90;61.00;;;;;;5099062;28;20078;-69
2021/06/12 06:36:03;;;;;;;2.40;1.98;;;26.70;61.20;;;;;;5099249;28;20024;-69
2021/06/12 06:38:29;;;;;;;2.38;1.58;;;26.20;59.20;;;;;;5098929;28;20069;-69
2021/06/12 06:40:54;;;;;;;4.20;1.40;;;26.20;60.50;;;;;;5099200;28;20024;-69
2021/06/12 06:43:20;;;;;;;2.00;1.35;;;26.50;62.20;;;;;;5099239;28;20028;-69
2021/06/12 06:45:46;;;;;;;2.10;1.40;;;26.90;61.30;;;;;;5099054;28;20128;-69
2021/06/12 06:48:13;;;;;;;3.92;1.40;;;27.30;62.30;;;;;;5099083;28;20034;-69
2021/06/12 06:50:40;;;;;;;2.85;1.60;;;27.70;58.50;;;;;;5098904;28;20122;-69
2021/06/12 06:53:06;;;;;;;1.70;1.25;;;28.00;60.10;;;;;;5098860;28;20316;-69
2021/06/12 06:55:31;;;;;;;2.13;1.30;;;28.00;58.30;;;;;;5098554;28;20039;-68
2021/06/12 06:57:57;;;;;;;1.88;1.40;;;27.90;59.90;;;;;;5098691;28;20020;-69
2021/06/12 07:00:25;;;;;;;2.78;1.30;;;28.20;59.10;;;;;;5098813;28;20422;-69
2021/06/12 07:02:52;;;;;;;4.53;1.35;;;28.60;59.00;;;;;;5098777;28;20028;-69
2021/06/12 07:05:18;;;;;;;2.90;1.30;;;29.00;59.00;;;;;;5098742;28;20020;-69
2021/06/12 07:07:43;;;;;;;1.50;1.15;;;29.40;59.10;;;;;;5098367;28;20043;-69
2021/06/12 07:10:10;;;;;;;4.65;1.35;;;29.60;59.00;;;;;;5098590;28;20024;-70
2021/06/12 07:12:36;;;;;;;2.28;1.58;;;30.10;56.70;;;;;;5098565;28;20461;-69
2021/06/12 07:15:02;;;;;;;1.73;1.30;;;30.40;55.90;;;;;;5098135;28;20048;-69
2021/06/12 07:17:28;;;;;;;1.33;1.15;;;30.50;55.50;;;;;;5098499;28;20025;-69
2021/06/12 07:19:54;;;;;;;2.17;1.50;;;30.20;56.00;;;;;;5098474;28;20332;-69
2021/06/12 07:22:20;;;;;;;2.50;1.30;;;29.90;56.00;;;;;;5098107;28;20020;-69
2021/06/12 07:24:45;;;;;;;2.17;1.20;;;29.60;57.80;;;;;;5098014;28;20031;-69
2021/06/12 07:27:13;;;;;;;1.58;1.08;;;29.50;53.30;;;;;;5098327;28;20024;-69
2021/06/12 07:29:39;;;;;;;1.83;1.20;;;29.70;52.90;;;;;;5098197;28;20095;-69
2021/06/12 07:32:05;;;;;;;3.95;1.20;;;29.90;55.70;;;;;;5098244;28;20095;-69
2021/06/12 07:34:31;;;;;;;1.30;1.13;;;30.00;54.20;;;;;;5098224;28;20142;-69
2021/06/12 07:36:57;;;;;;;2.03;1.10;;;30.20;56.40;;;;;;5097758;28;20105;-69
2021/06/12 07:39:26;;;;;;;2.75;1.23;;;30.50;51.50;;;;;;5098082;28;20032;-69
2021/06/12 07:41:52;;;;;;;3.10;1.40;;;30.60;54.50;;;;;;5097737;28;20098;-69
2021/06/12 07:44:17;;;;;;;1.83;1.33;;;30.70;56.20;;;;;;5098088;28;20130;-70
2021/06/12 07:46:43;;;;;;;2.75;1.13;;;30.80;55.40;;;;;;5097920;28;20032;-70
2021/06/12 07:49:11;;;;;;;1.90;1.30;;;30.90;55.60;;;;;;5097867;28;20408;-69
2021/06/12 07:51:38;;;;;;;2.33;1.70;;;31.10;55.70;;;;;;5097545;28;20073;-69
2021/06/12 07:54:04;;;;;;;2.88;1.38;;;30.70;54.40;;;;;;5097837;28;20044;-70
2021/06/12 07:56:30;;;;;;;2.28;1.20;;;30.80;55.70;;;;;;5097659;28;20102;-70
2021/06/12 07:58:55;;;;;;;2.70;1.48;;;30.80;56.00;;;;;;5097705;28;20108;-70
2021/06/12 08:01:21;;;;;;;1.75;1.10;;;31.00;54.80;;;;;;5097484;28;20373;-70
2021/06/12 08:03:47;;;;;;;2.05;1.30;;;31.00;55.70;;;;;;5097669;28;20028;-70
2021/06/12 08:06:13;;;;;;;3.92;1.33;;;30.90;54.70;;;;;;5097070;28;20030;-70
2021/06/12 08:08:38;;;;;;;3.45;1.52;;;31.00;58.10;;;;;;5097193;28;20060;-70
2021/06/12 08:11:04;;;;;;;3.15;1.67;;;31.10;57.00;;;;;;5097217;28;20023;-70
2021/06/12 08:13:30;;;;;;;1.60;1.48;;;30.70;55.20;;;;;;5097111;28;20055;-70
2021/06/12 08:15:56;;;;;;;1.30;1.20;;;30.80;54.50;;;;;;5097094;28;20028;-70
2021/06/12 08:18:21;;;;;;;1.92;1.50;;;30.90;52.80;;;;;;5097432;28;20031;-69
2021/06/12 08:20:48;;;;;;;3.05;1.63;;;30.90;53.70;;;;;;5097412;28;20020;-70
2021/06/12 08:23:14;;;;;;;3.17;1.48;;;30.60;54.00;;;;;;5097024;28;20447;-69
2021/06/12 08:25:40;;;;;;;1.83;1.58;;;30.40;53.60;;;;;;5097294;28;20024;-69
2021/06/12 08:28:06;;;;;;;3.50;2.13;;;30.60;53.30;;;;;;5097029;28;20363;-69
2021/06/12 08:30:36;;;;;;;2.63;1.30;;;31.00;51.80;;;;;;5097253;28;20043;-69
2021/06/12 08:33:04;;;;;;;1.88;1.50;;;31.30;55.70;;;;;;5097250;28;20323;-69
2021/06/12 08:35:30;;;;;;;2.70;1.30;;;30.90;52.30;;;;;;5096748;28;20012;-69
2021/06/12 08:37:56;;;;;;;2.40;1.40;;;31.00;53.30;;;;;;5097170;28;20032;-69
2021/06/12 08:40:23;;;;;;;2.25;1.35;;;31.00;52.90;;;;;;5097157;28;20051;-69
2021/06/12 08:42:50;;;;;;;1.67;1.20;;;31.30;53.50;;;;;;5096762;28;20468;-70
2021/06/12 08:45:18;;;;;;;3.65;1.20;;;31.30;50.80;;;;;;5097080;28;20028;-69
2021/06/12 08:47:44;;;;;;;1.38;1.17;;;31.10;53.00;;;;;;5097058;28;20032;-69
2021/06/12 08:50:11;;;;;;;2.25;1.30;;;30.90;57.00;;;;;;5096616;28;20427;-70
2021/06/12 08:52:38;;;;;;;2.22;1.20;;;30.90;53.20;;;;;;5097026;28;20031;-70
2021/06/12 08:55:09;;;;;;;3.08;1.58;;;31.00;55.10;;;;;;5096969;28;20312;-69
2021/06/12 08:57:35;;;;;;;1.75;0.98;;;31.40;53.40;;;;;;5096948;28;20065;-69
2021/06/12 09:00:00;;;;;;;1.85;1.02;;;31.60;49.00;;;;;;5096671;28;20035;-70
2021/06/12 09:02:26;;;;;;;1.83;1.30;;;31.70;51.60;;;;;;5096884;28;20028;-70
2021/06/12 09:04:53;;;;;;;2.05;1.30;;;31.40;50.90;;;;;;5096896;28;20430;-70
2021/06/12 09:07:34;;;;;;;2.17;1.23;;;31.10;51.40;;;;;;5096609;28;20103;-69
2021/06/12 09:10:00;;;;;;;3.50;1.50;;;31.10;51.70;;;;;;5096671;28;20028;-70
2021/06/12 09:12:48;;;;;;;3.53;1.42;;;31.30;52.60;;;;;;5096854;28;20027;-70
2021/06/12 09:15:16;;;;;;;2.72;1.52;;;31.30;51.00;;;;;;5096349;28;20050;-70
2021/06/12 09:17:48;;;;;;;3.10;1.20;;;31.50;53.00;;;;;;5098089;28;20024;-70
2021/06/12 09:20:28;;;;;;;1.98;1.33;;;31.50;49.60;;;;;;5100525;28;20024;-70
2021/06/12 09:23:12;;;;;;;2.08;1.40;;;31.10;51.20;;;;;;5100790;28;20289;-70
2021/06/12 09:25:41;;;;;;;2.00;1.10;;;31.50;53.00;;;;;;5100415;28;20538;-70
2021/06/12 09:28:07;;;;;;;2.22;1.00;;;31.60;50.40;;;;;;5100635;28;20031;-70
2021/06/12 09:30:33;;;;;;;2.00;1.17;;;31.70;47.40;;;;;;5100550;28;20032;-70
2021/06/12 09:32:58;;;;;;;1.73;0.98;;;31.50;46.70;;;;;;5100218;28;20028;-70
2021/06/12 09:35:42;;;;;;;3.75;1.50;;;31.60;50.10;;;;;;5100191;28;20020;-70
2021/06/12 09:38:29;;;;;;;3.03;1.20;;;31.80;55.10;;;;;;5100170;28;20047;-70
2021/06/12 09:40:55;;;;;;;1.35;1.00;;;32.00;50.60;;;;;;5100078;28;20046;-70
2021/06/12 09:43:28;;;;;;;2.55;1.20;;;32.10;52.30;;;;;;5100233;28;20107;-70
2021/06/12 09:45:54;;;;;;;2.17;1.10;;;32.20;48.30;;;;;;5099925;28;20033;-70
2021/06/12 09:48:20;;;;;;;1.35;1.00;;;31.90;49.80;;;;;;5099960;28;20409;-69
2021/06/12 09:50:47;;;;;;;1.52;1.10;;;32.10;51.30;;;;;;5100168;28;20051;-69
2021/06/12 09:53:18;;;;;;;2.88;1.50;;;32.20;49.90;;;;;;5100198;28;20059;-69
2021/06/12 09:55:44;;;;;;;2.33;1.17;;;32.00;49.50;;;;;;5100096;28;20412;-69
2021/06/12 09:58:10;;;;;;;3.65;1.13;;;31.70;50.20;;;;;;5099773;28;20063;-70
2021/06/12 10:00:45;;;;;;;2.80;1.17;;;31.60;49.60;;;;;;5100070;28;20059;-70
2021/06/12 10:03:31;;;;;;;1.85;1.27;;;31.80;51.10;;;;;;5100016;28;20074;-70
2021/06/12 10:06:21;;;;;;;1.50;1.40;;;31.60;50.70;;;;;;5099997;28;20035;-70
2021/06/12 10:08:49;;;;;;;4.25;1.20;;;31.60;48.80;;;;;;5099510;28;20028;-70
2021/06/12 10:11:16;;;;;;;2.95;1.40;;;31.70;51.40;;;;;;5099852;28;20117;-69
2021/06/12 10:13:47;;;;;;;1.60;1.20;;;31.60;52.50;;;;;;5099509;28;20044;-69
2021/06/12 10:16:14;;;;;;;1.42;1.13;;;31.70;53.20;;;;;;5097884;28;20424;-69
2021/06/12 10:18:41;;;;;;;2.08;1.05;;;31.80;52.30;;;;;;5109312;28;20027;-69
2021/06/12 10:21:11;;;;;;;2.40;1.23;;;31.90;50.90;;;;;;5100463;28;20020;-69
2021/06/12 10:23:42;;;;;;;3.25;1.42;;;31.80;51.40;;;;;;5099638;28;20028;-69
2021/06/12 10:26:12;;;;;;;2.30;1.52;;;31.80;51.20;;;;;;5099470;28;20101;-69
2021/06/12 10:28:37;;;;;;;1.40;1.20;;;31.60;50.50;;;;;;5098986;28;20077;-69
2021/06/12 10:31:09;;;;;;;2.78;1.30;;;31.10;51.20;;;;;;5099480;28;20351;-69
2021/06/12 10:33:35;;;;;;;2.03;1.40;;;31.10;54.60;;;;;;5099377;28;20024;-69
2021/06/12 10:36:24;;;;;;;2.22;1.33;;;31.30;52.00;;;;;;5098980;28;20026;-69
2021/06/12 10:38:51;;;;;;;62.33;22.02;;;31.30;51.70;;;;;;5099031;28;20039;-69
2021/06/12 10:41:18;;;;;;;4.97;1.50;;;31.40;55.90;;;;;;5098955;28;20151;-69
2021/06/12 10:43:45;;;;;;;5.18;2.88;;;31.60;53.20;;;;;;5099302;28;20123;-69
2021/06/12 10:46:13;;;;;;;3.05;1.55;;;31.30;51.90;;;;;;5098783;28;20102;-69
2021/06/12 10:48:43;;;;;;;2.13;1.50;;;30.30;50.60;;;;;;5109619;28;20078;-69
2021/06/12 10:51:15;;;;;;;2.90;1.30;;;29.90;53.30;;;;;;5099018;28;20020;-69
2021/06/12 10:53:44;;;;;;;2.63;1.40;;;29.80;55.40;;;;;;5098762;28;20021;-69
2021/06/12 10:56:32;;;;;;;3.58;1.77;;;30.10;56.60;;;;;;5098582;28;20036;-69
2021/06/12 10:58:58;;;;;;;2.15;1.33;;;30.20;52.40;;;;;;5098662;28;20059;-69
2021/06/12 11:01:24;;;;;;;4.13;1.40;;;30.40;54.60;;;;;;5098875;28;20060;-69
2021/06/12 11:09:12;;;;;;;2.78;1.55;;;31.40;50.10;;;;;;5098743;28;20396;-70
2021/06/12 11:11:39;;;;;;;2.00;1.30;;;31.50;50.90;;;;;;5098607;28;20044;-69
2021/06/12 11:14:23;;;;;;;1.38;1.15;;;31.50;50.20;;;;;;5098214;28;20048;-69
2021/06/12 11:19:32;;;;;;;2.92;1.42;;;31.50;49.40;;;;;;5107855;28;20039;-69
2021/06/12 11:22:36;;;;;;;2.38;1.40;;;31.40;54.30;;;;;;5118823;28;20034;-69
2021/06/12 11:25:08;;;;;;;1.45;1.10;;;31.40;47.70;;;;;;5087155;28;20043;-69
2021/06/12 11:27:46;;;;;;;1.65;1.30;;;31.30;52.00;;;;;;5118488;28;20434;-69
2021/06/12 11:30:12;;;;;;;2.65;1.40;;;31.20;52.10;;;;;;5118544;28;20039;-69
2021/06/12 11:32:38;;;;;;;2.58;1.33;;;30.80;50.80;;;;;;5118337;28;20023;-69
2021/06/12 11:35:05;;;;;;;1.50;1.38;;;30.80;57.20;;;;;;5118325;28;20412;-69
2021/06/12 11:37:31;;;;;;;2.85;1.35;;;30.80;50.40;;;;;;5118249;28;20020;-69
2021/06/12 11:40:02;;;;;;;3.15;1.50;;;30.40;50.50;;;;;;5117721;28;20027;-69
2021/06/12 11:42:42;;;;;;;3.15;1.30;;;30.20;53.40;;;;;;5118525;28;20312;-69
2021/06/12 11:45:14;;;;;;;1.92;1.70;;;30.00;56.60;;;;;;5118392;28;20043;-69
2021/06/12 11:47:39;;;;;;;1.60;1.50;;;29.90;52.40;;;;;;5118377;28;20318;-69
2021/06/12 11:50:06;;;;;;;1.45;1.35;;;29.80;54.50;;;;;;5117959;28;20027;-69
2021/06/12 11:52:41;;;;;;;4.13;1.77;;;29.60;53.70;;;;;;5117912;28;20040;-69
2021/06/12 11:55:22;;;;;;;3.15;1.80;;;29.60;55.30;;;;;;5117896;28;20429;-69
2021/06/12 11:57:51;;;;;;;1.98;1.73;;;29.50;56.00;;;;;;5117917;28;20484;-69
2021/06/12 12:00:22;;;;;;;2.40;1.42;;;29.50;54.30;;;;;;5116802;28;20026;-69
2021/06/12 12:03:11;;;;;;;3.42;1.65;;;29.50;58.10;;;;;;5118051;28;20028;-69
2021/06/12 12:05:48;;;;;;;2.03;1.70;;;29.40;50.10;;;;;;5118007;28;20024;-69
2021/06/12 12:08:16;;;;;;;1.75;1.63;;;29.40;56.90;;;;;;5117714;28;20045;-69
2021/06/12 12:10:50;;;;;;;2.25;1.52;;;29.20;55.20;;;;;;5117889;28;20089;-69
2021/06/12 12:13:24;;;;;;;2.20;1.42;;;29.10;56.10;;;;;;5117751;28;20031;-69
2021/06/12 12:15:50;;;;;;;1.63;1.52;;;29.00;53.20;;;;;;5117851;28;20197;-69
2021/06/12 12:18:16;;;;;;;1.77;1.30;;;28.80;52.20;;;;;;5117529;28;20023;-69
2021/06/12 12:20:44;;;;;;;2.47;1.70;;;28.70;55.30;;;;;;5117745;28;20039;-69
2021/06/12 12:23:23;;;;;;;2.47;1.50;;;28.70;55.60;;;;;;5117775;28;20076;-69
2021/06/12 12:25:53;;;;;;;3.35;1.40;;;28.80;57.50;;;;;;5117662;28;20406;-69
2021/06/12 12:28:20;;;;;;;2.00;1.65;;;28.70;52.00;;;;;;5117686;28;20169;-69
2021/06/12 12:30:47;;;;;;;3.20;1.80;;;28.50;55.60;;;;;;5117590;28;20036;-69
2021/06/12 12:33:17;;;;;;;3.63;1.35;;;28.30;51.50;;;;;;5117636;28;20023;-69
2021/06/12 12:35:43;;;;;;;1.63;1.25;;;28.30;53.10;;;;;;5117259;28;20024;-69
2021/06/12 12:38:20;;;;;;;4.00;1.55;;;28.30;54.20;;;;;;5117573;28;20023;-69
2021/06/12 12:40:48;;;;;;;2.28;1.40;;;28.40;54.90;;;;;;5117584;28;20342;-69
2021/06/12 12:43:19;;;;;;;2.13;1.40;;;28.30;58.60;;;;;;5117190;28;20039;-69
2021/06/12 12:45:47;;;;;;;1.67;1.55;;;28.10;57.30;;;;;;5117450;28;20039;-69
2021/06/12 12:48:14;;;;;;;1.92;1.40;;;28.20;56.30;;;;;;5117430;28;20047;-69
2021/06/12 12:50:41;;;;;;;2.35;1.95;;;28.30;58.80;;;;;;5117599;28;20027;-69
2021/06/12 12:53:17;;;;;;;2.83;2.17;;;28.30;52.80;;;;;;5124261;28;20364;-69
2021/06/12 12:55:53;;;;;;;2.25;1.90;;;28.20;55.60;;;;;;5123944;27;20031;-69
2021/06/12 12:58:23;;;;;;;2.15;1.70;;;28.20;57.80;;;;;;5124263;28;20024;-69
2021/06/12 13:00:49;;;;;;;2.38;2.17;;;28.30;60.40;;;;;;5123887;28;20111;-69